sensor_id;sensor_type;location;lat;lon;timestamp;P1;durP1;ratioP1;P2;durP2;ratioP2
17091;SDS011;8661;45.700;4.880;2023-01-25T00:01:54;22.37;;;13.87;;
17091;SDS011;8661;45.700;4.880;2023-01-25T00:04:21;23.13;;;13.60;;
17091;SDS011;8661;45.700;4.880;2023-01-25T00:06:50;22.13;;;13.23;;
17091;SDS011;8661;45.700;4.880;2023-01-25T00:09:17;21.33;;;13.03;;
17091;SDS011;8661;45.700;4.880;2023-01-25T00:11:45;21.00;;;13.50;;
17091;SDS011;8661;45.700;4.880;2023-01-25T00:14:12;20.93;;;12.70;;
17091;SDS011;8661;45.700;4.880;2023-01-25T00:16:40;23.70;;;13.70;;
17091;SDS011;8661;45.700;4.880;2023-01-25T00:19:13;21.23;;;12.67;;
17091;SDS011;8661;45.700;4.880;2023-01-25T00:21:40;21.80;;;13.40;;
17091;SDS011;8661;45.700;4.880;2023-01-25T00:24:09;24.73;;;14.23;;
17091;SDS011;8661;45.700;4.880;2023-01-25T00:26:38;24.53;;;13.93;;
17091;SDS011;8661;45.700;4.880;2023-01-25T00:29:08;23.20;;;13.47;;
17091;SDS011;8661;45.700;4.880;2023-01-25T00:31:40;21.70;;;13.10;;
17091;SDS011;8661;45.700;4.880;2023-01-25T00:37:11;21.63;;;13.73;;
17091;SDS011;8661;45.700;4.880;2023-01-25T00:39:45;23.77;;;13.57;;
17091;SDS011;8661;45.700;4.880;2023-01-25T00:42:12;22.30;;;13.63;;
17091;SDS011;8661;45.700;4.880;2023-01-25T00:44:40;24.57;;;14.17;;
17091;SDS011;8661;45.700;4.880;2023-01-25T00:47:07;23.23;;;14.67;;
17091;SDS011;8661;45.700;4.880;2023-01-25T00:49:35;23.70;;;14.33;;
17091;SDS011;8661;45.700;4.880;2023-01-25T00:52:02;23.90;;;14.53;;
17091;SDS011;8661;45.700;4.880;2023-01-25T00:54:30;25.03;;;14.50;;
17091;SDS011;8661;45.700;4.880;2023-01-25T00:56:58;23.50;;;14.10;;
17091;SDS011;8661;45.700;4.880;2023-01-25T00:59:25;21.73;;;13.50;;
17091;SDS011;8661;45.700;4.880;2023-01-25T01:01:52;24.73;;;14.60;;
17091;SDS011;8661;45.700;4.880;2023-01-25T01:04:20;21.80;;;14.47;;
17091;SDS011;8661;45.700;4.880;2023-01-25T01:06:49;27.23;;;14.90;;
17091;SDS011;8661;45.700;4.880;2023-01-25T01:09:17;26.77;;;14.97;;
17091;SDS011;8661;45.700;4.880;2023-01-25T01:11:45;23.43;;;14.03;;
17091;SDS011;8661;45.700;4.880;2023-01-25T01:14:14;24.80;;;14.77;;
17091;SDS011;8661;45.700;4.880;2023-01-25T01:16:41;26.10;;;14.63;;
17091;SDS011;8661;45.700;4.880;2023-01-25T01:19:07;24.73;;;14.60;;
17091;SDS011;8661;45.700;4.880;2023-01-25T01:21:35;23.43;;;14.27;;
17091;SDS011;8661;45.700;4.880;2023-01-25T01:24:02;21.40;;;14.07;;
17091;SDS011;8661;45.700;4.880;2023-01-25T01:26:29;21.50;;;14.03;;
17091;SDS011;8661;45.700;4.880;2023-01-25T01:28:56;24.37;;;13.90;;
17091;SDS011;8661;45.700;4.880;2023-01-25T01:31:25;21.40;;;13.53;;
17091;SDS011;8661;45.700;4.880;2023-01-25T01:33:53;23.87;;;13.90;;
17091;SDS011;8661;45.700;4.880;2023-01-25T01:36:23;25.53;;;14.00;;
17091;SDS011;8661;45.700;4.880;2023-01-25T01:38:51;23.90;;;13.43;;
17091;SDS011;8661;45.700;4.880;2023-01-25T01:41:18;23.33;;;13.87;;
17091;SDS011;8661;45.700;4.880;2023-01-25T01:43:45;23.80;;;14.77;;
17091;SDS011;8661;45.700;4.880;2023-01-25T01:46:14;24.60;;;14.23;;
17091;SDS011;8661;45.700;4.880;2023-01-25T01:48:46;25.27;;;13.97;;
17091;SDS011;8661;45.700;4.880;2023-01-25T01:51:18;23.47;;;14.40;;
17091;SDS011;8661;45.700;4.880;2023-01-25T01:53:50;24.17;;;14.53;;
17091;SDS011;8661;45.700;4.880;2023-01-25T01:56:21;24.83;;;14.60;;
17091;SDS011;8661;45.700;4.880;2023-01-25T01:58:55;23.53;;;14.60;;
17091;SDS011;8661;45.700;4.880;2023-01-25T02:01:24;23.00;;;14.70;;
17091;SDS011;8661;45.700;4.880;2023-01-25T02:03:52;21.47;;;13.60;;
17091;SDS011;8661;45.700;4.880;2023-01-25T02:06:23;25.10;;;14.43;;
17091;SDS011;8661;45.700;4.880;2023-01-25T02:08:58;26.50;;;13.80;;
17091;SDS011;8661;45.700;4.880;2023-01-25T02:11:26;21.87;;;13.90;;
17091;SDS011;8661;45.700;4.880;2023-01-25T02:13:55;24.37;;;14.40;;
17091;SDS011;8661;45.700;4.880;2023-01-25T02:16:25;20.03;;;12.83;;
17091;SDS011;8661;45.700;4.880;2023-01-25T02:18:55;23.10;;;13.60;;
17091;SDS011;8661;45.700;4.880;2023-01-25T02:21:26;22.80;;;13.97;;
17091;SDS011;8661;45.700;4.880;2023-01-25T02:24:03;22.73;;;13.83;;
17091;SDS011;8661;45.700;4.880;2023-01-25T02:26:36;24.20;;;13.50;;
17091;SDS011;8661;45.700;4.880;2023-01-25T02:29:04;23.60;;;14.07;;
17091;SDS011;8661;45.700;4.880;2023-01-25T02:31:32;20.43;;;12.97;;
17091;SDS011;8661;45.700;4.880;2023-01-25T02:33:59;22.13;;;12.80;;
17091;SDS011;8661;45.700;4.880;2023-01-25T02:36:27;21.47;;;13.40;;
17091;SDS011;8661;45.700;4.880;2023-01-25T02:38:56;23.73;;;14.13;;
17091;SDS011;8661;45.700;4.880;2023-01-25T02:41:28;21.87;;;13.70;;
17091;SDS011;8661;45.700;4.880;2023-01-25T02:43:59;22.87;;;13.23;;
17091;SDS011;8661;45.700;4.880;2023-01-25T02:46:30;21.73;;;12.83;;
17091;SDS011;8661;45.700;4.880;2023-01-25T02:48:59;21.10;;;14.03;;
17091;SDS011;8661;45.700;4.880;2023-01-25T02:51:27;24.83;;;14.47;;
17091;SDS011;8661;45.700;4.880;2023-01-25T02:53:55;22.33;;;13.43;;
17091;SDS011;8661;45.700;4.880;2023-01-25T02:56:23;23.63;;;13.57;;
17091;SDS011;8661;45.700;4.880;2023-01-25T02:58:51;20.47;;;13.13;;
17091;SDS011;8661;45.700;4.880;2023-01-25T03:01:19;24.37;;;14.47;;
17091;SDS011;8661;45.700;4.880;2023-01-25T03:03:46;24.97;;;14.27;;
17091;SDS011;8661;45.700;4.880;2023-01-25T03:06:13;21.27;;;13.23;;
17091;SDS011;8661;45.700;4.880;2023-01-25T03:08:40;25.30;;;14.87;;
17091;SDS011;8661;45.700;4.880;2023-01-25T03:11:08;23.50;;;13.80;;
17091;SDS011;8661;45.700;4.880;2023-01-25T03:13:35;23.67;;;14.43;;
17091;SDS011;8661;45.700;4.880;2023-01-25T03:16:04;23.90;;;14.80;;
17091;SDS011;8661;45.700;4.880;2023-01-25T03:18:34;23.40;;;15.00;;
17091;SDS011;8661;45.700;4.880;2023-01-25T03:21:05;22.07;;;14.17;;
17091;SDS011;8661;45.700;4.880;2023-01-25T03:23:33;24.83;;;15.23;;
17091;SDS011;8661;45.700;4.880;2023-01-25T03:26:07;22.63;;;13.17;;
17091;SDS011;8661;45.700;4.880;2023-01-25T03:28:35;25.43;;;14.97;;
17091;SDS011;8661;45.700;4.880;2023-01-25T03:31:03;23.33;;;14.13;;
17091;SDS011;8661;45.700;4.880;2023-01-25T03:33:31;23.93;;;14.10;;
17091;SDS011;8661;45.700;4.880;2023-01-25T03:35:59;20.80;;;13.23;;
17091;SDS011;8661;45.700;4.880;2023-01-25T03:38:27;24.43;;;14.40;;
17091;SDS011;8661;45.700;4.880;2023-01-25T03:40:54;21.07;;;13.90;;
17091;SDS011;8661;45.700;4.880;2023-01-25T03:43:21;23.53;;;13.80;;
17091;SDS011;8661;45.700;4.880;2023-01-25T03:45:52;25.00;;;13.87;;
17091;SDS011;8661;45.700;4.880;2023-01-25T03:48:21;24.97;;;13.67;;
17091;SDS011;8661;45.700;4.880;2023-01-25T03:50:48;21.47;;;13.83;;
17091;SDS011;8661;45.700;4.880;2023-01-25T03:53:18;24.80;;;14.13;;
17091;SDS011;8661;45.700;4.880;2023-01-25T03:55:52;23.23;;;14.10;;
17091;SDS011;8661;45.700;4.880;2023-01-25T03:58:20;23.87;;;14.30;;
17091;SDS011;8661;45.700;4.880;2023-01-25T04:00:47;22.63;;;13.77;;
17091;SDS011;8661;45.700;4.880;2023-01-25T04:03:14;23.67;;;14.40;;
17091;SDS011;8661;45.700;4.880;2023-01-25T04:05:41;21.50;;;13.60;;
17091;SDS011;8661;45.700;4.880;2023-01-25T04:08:08;23.10;;;13.70;;
17091;SDS011;8661;45.700;4.880;2023-01-25T04:10:39;22.20;;;13.47;;
17091;SDS011;8661;45.700;4.880;2023-01-25T04:13:06;22.67;;;14.10;;
17091;SDS011;8661;45.700;4.880;2023-01-25T04:15:34;23.77;;;13.40;;
17091;SDS011;8661;45.700;4.880;2023-01-25T04:18:01;23.27;;;13.87;;
17091;SDS011;8661;45.700;4.880;2023-01-25T04:20:28;24.20;;;13.43;;
17091;SDS011;8661;45.700;4.880;2023-01-25T04:22:54;24.47;;;14.57;;
17091;SDS011;8661;45.700;4.880;2023-01-25T04:25:21;26.20;;;14.47;;
17091;SDS011;8661;45.700;4.880;2023-01-25T04:27:50;21.83;;;13.90;;
17091;SDS011;8661;45.700;4.880;2023-01-25T04:30:17;27.27;;;14.93;;
17091;SDS011;8661;45.700;4.880;2023-01-25T04:32:44;26.33;;;14.13;;
17091;SDS011;8661;45.700;4.880;2023-01-25T04:35:11;27.00;;;14.93;;
17091;SDS011;8661;45.700;4.880;2023-01-25T04:37:38;24.80;;;14.60;;
17091;SDS011;8661;45.700;4.880;2023-01-25T04:40:05;23.23;;;13.97;;
17091;SDS011;8661;45.700;4.880;2023-01-25T04:42:33;20.93;;;13.47;;
17091;SDS011;8661;45.700;4.880;2023-01-25T04:45:01;24.93;;;14.23;;
17091;SDS011;8661;45.700;4.880;2023-01-25T04:47:28;23.33;;;14.07;;
17091;SDS011;8661;45.700;4.880;2023-01-25T04:49:55;21.57;;;13.57;;
17091;SDS011;8661;45.700;4.880;2023-01-25T04:52:22;21.53;;;13.70;;
17091;SDS011;8661;45.700;4.880;2023-01-25T04:54:49;22.23;;;13.30;;
17091;SDS011;8661;45.700;4.880;2023-01-25T04:57:16;25.23;;;14.50;;
17091;SDS011;8661;45.700;4.880;2023-01-25T04:59:43;20.20;;;13.13;;
17091;SDS011;8661;45.700;4.880;2023-01-25T05:02:11;24.67;;;14.83;;
17091;SDS011;8661;45.700;4.880;2023-01-25T05:04:38;23.23;;;14.97;;
17091;SDS011;8661;45.700;4.880;2023-01-25T05:07:05;24.17;;;13.50;;
17091;SDS011;8661;45.700;4.880;2023-01-25T05:09:32;23.20;;;14.23;;
17091;SDS011;8661;45.700;4.880;2023-01-25T05:11:59;21.77;;;13.87;;
17091;SDS011;8661;45.700;4.880;2023-01-25T05:14:26;23.20;;;13.70;;
17091;SDS011;8661;45.700;4.880;2023-01-25T05:16:53;23.13;;;13.60;;
17091;SDS011;8661;45.700;4.880;2023-01-25T05:19:21;20.10;;;12.17;;
17091;SDS011;8661;45.700;4.880;2023-01-25T05:21:48;18.27;;;12.10;;
17091;SDS011;8661;45.700;4.880;2023-01-25T05:24:24;21.40;;;13.60;;
17091;SDS011;8661;45.700;4.880;2023-01-25T05:26:51;21.87;;;13.30;;
17091;SDS011;8661;45.700;4.880;2023-01-25T05:29:28;18.93;;;12.40;;
17091;SDS011;8661;45.700;4.880;2023-01-25T05:31:55;20.73;;;14.03;;
17091;SDS011;8661;45.700;4.880;2023-01-25T05:34:23;26.37;;;14.17;;
17091;SDS011;8661;45.700;4.880;2023-01-25T05:36:51;20.80;;;12.93;;
17091;SDS011;8661;45.700;4.880;2023-01-25T05:39:25;24.67;;;13.23;;
17091;SDS011;8661;45.700;4.880;2023-01-25T05:41:52;19.67;;;13.30;;
17091;SDS011;8661;45.700;4.880;2023-01-25T05:44:19;21.63;;;13.90;;
17091;SDS011;8661;45.700;4.880;2023-01-25T05:46:46;21.10;;;14.17;;
17091;SDS011;8661;45.700;4.880;2023-01-25T05:49:14;22.00;;;13.50;;
17091;SDS011;8661;45.700;4.880;2023-01-25T05:51:43;21.92;;;15.45;;
17091;SDS011;8661;45.700;4.880;2023-01-25T05:54:12;20.20;;;13.63;;
17091;SDS011;8661;45.700;4.880;2023-01-25T05:56:40;23.53;;;13.47;;
17091;SDS011;8661;45.700;4.880;2023-01-25T05:59:08;22.27;;;13.47;;
17091;SDS011;8661;45.700;4.880;2023-01-25T06:01:37;22.23;;;13.53;;
17091;SDS011;8661;45.700;4.880;2023-01-25T06:04:04;24.70;;;14.63;;
17091;SDS011;8661;45.700;4.880;2023-01-25T06:06:31;22.10;;;14.23;;
17091;SDS011;8661;45.700;4.880;2023-01-25T06:08:59;23.17;;;14.53;;
17091;SDS011;8661;45.700;4.880;2023-01-25T06:11:26;24.33;;;13.80;;
17091;SDS011;8661;45.700;4.880;2023-01-25T06:13:53;23.77;;;14.47;;
17091;SDS011;8661;45.700;4.880;2023-01-25T06:16:20;20.37;;;13.07;;
17091;SDS011;8661;45.700;4.880;2023-01-25T06:18:47;23.10;;;13.80;;
17091;SDS011;8661;45.700;4.880;2023-01-25T06:21:14;22.43;;;14.20;;
17091;SDS011;8661;45.700;4.880;2023-01-25T06:23:41;23.00;;;13.67;;
17091;SDS011;8661;45.700;4.880;2023-01-25T06:26:10;19.27;;;13.10;;
17091;SDS011;8661;45.700;4.880;2023-01-25T06:28:38;20.10;;;12.80;;
17091;SDS011;8661;45.700;4.880;2023-01-25T06:31:06;21.23;;;13.27;;
17091;SDS011;8661;45.700;4.880;2023-01-25T06:33:35;18.70;;;11.73;;
17091;SDS011;8661;45.700;4.880;2023-01-25T06:36:02;17.93;;;11.10;;
17091;SDS011;8661;45.700;4.880;2023-01-25T06:38:31;18.13;;;11.53;;
17091;SDS011;8661;45.700;4.880;2023-01-25T06:40:58;18.10;;;12.23;;
17091;SDS011;8661;45.700;4.880;2023-01-25T06:43:27;18.30;;;11.47;;
17091;SDS011;8661;45.700;4.880;2023-01-25T06:45:58;19.43;;;13.10;;
17091;SDS011;8661;45.700;4.880;2023-01-25T06:48:26;18.67;;;11.83;;
17091;SDS011;8661;45.700;4.880;2023-01-25T06:50:54;18.90;;;12.43;;
17091;SDS011;8661;45.700;4.880;2023-01-25T06:53:23;19.50;;;12.07;;
17091;SDS011;8661;45.700;4.880;2023-01-25T06:55:58;20.40;;;12.23;;
17091;SDS011;8661;45.700;4.880;2023-01-25T06:58:27;20.60;;;12.73;;
17091;SDS011;8661;45.700;4.880;2023-01-25T07:00:58;19.00;;;12.40;;
17091;SDS011;8661;45.700;4.880;2023-01-25T07:03:25;16.70;;;11.90;;
17091;SDS011;8661;45.700;4.880;2023-01-25T07:05:55;17.80;;;12.50;;
17091;SDS011;8661;45.700;4.880;2023-01-25T07:08:24;19.30;;;12.60;;
17091;SDS011;8661;45.700;4.880;2023-01-25T07:10:54;18.07;;;11.93;;
17091;SDS011;8661;45.700;4.880;2023-01-25T07:13:22;19.67;;;12.57;;
17091;SDS011;8661;45.700;4.880;2023-01-25T07:15:54;19.43;;;12.70;;
17091;SDS011;8661;45.700;4.880;2023-01-25T07:18:22;18.97;;;12.60;;
17091;SDS011;8661;45.700;4.880;2023-01-25T07:20:49;22.37;;;13.33;;
17091;SDS011;8661;45.700;4.880;2023-01-25T07:23:16;22.23;;;12.93;;
17091;SDS011;8661;45.700;4.880;2023-01-25T07:25:44;24.03;;;13.40;;
17091;SDS011;8661;45.700;4.880;2023-01-25T07:28:12;19.30;;;13.00;;
17091;SDS011;8661;45.700;4.880;2023-01-25T07:30:40;24.80;;;13.87;;
17091;SDS011;8661;45.700;4.880;2023-01-25T07:33:08;23.40;;;13.30;;
17091;SDS011;8661;45.700;4.880;2023-01-25T07:35:36;23.53;;;13.00;;
17091;SDS011;8661;45.700;4.880;2023-01-25T07:38:03;29.17;;;13.47;;
17091;SDS011;8661;45.700;4.880;2023-01-25T07:40:30;22.87;;;13.37;;
17091;SDS011;8661;45.700;4.880;2023-01-25T07:42:57;24.07;;;13.33;;
17091;SDS011;8661;45.700;4.880;2023-01-25T07:45:24;20.37;;;13.20;;
17091;SDS011;8661;45.700;4.880;2023-01-25T07:47:54;20.43;;;13.07;;
17091;SDS011;8661;45.700;4.880;2023-01-25T07:50:23;22.30;;;13.17;;
17091;SDS011;8661;45.700;4.880;2023-01-25T07:52:51;24.30;;;13.83;;
17091;SDS011;8661;45.700;4.880;2023-01-25T07:55:18;22.80;;;14.03;;
17091;SDS011;8661;45.700;4.880;2023-01-25T07:57:45;30.73;;;13.37;;
17091;SDS011;8661;45.700;4.880;2023-01-25T08:00:12;22.93;;;14.10;;
17091;SDS011;8661;45.700;4.880;2023-01-25T08:02:40;27.70;;;14.37;;
17091;SDS011;8661;45.700;4.880;2023-01-25T08:05:07;24.30;;;13.63;;
17091;SDS011;8661;45.700;4.880;2023-01-25T08:07:36;21.77;;;14.50;;
17091;SDS011;8661;45.700;4.880;2023-01-25T08:10:04;20.73;;;13.80;;
17091;SDS011;8661;45.700;4.880;2023-01-25T08:12:32;22.20;;;13.77;;
17091;SDS011;8661;45.700;4.880;2023-01-25T08:14:59;24.80;;;14.17;;
17091;SDS011;8661;45.700;4.880;2023-01-25T08:17:26;20.10;;;12.57;;
17091;SDS011;8661;45.700;4.880;2023-01-25T08:19:56;18.53;;;12.30;;
17091;SDS011;8661;45.700;4.880;2023-01-25T08:22:23;18.37;;;11.90;;
17091;SDS011;8661;45.700;4.880;2023-01-25T08:24:52;20.27;;;11.63;;
17091;SDS011;8661;45.700;4.880;2023-01-25T08:27:19;18.77;;;11.33;;
17091;SDS011;8661;45.700;4.880;2023-01-25T08:29:46;20.77;;;13.53;;
17091;SDS011;8661;45.700;4.880;2023-01-25T08:32:14;20.80;;;12.97;;
17091;SDS011;8661;45.700;4.880;2023-01-25T08:34:41;21.27;;;12.93;;
17091;SDS011;8661;45.700;4.880;2023-01-25T08:37:08;22.53;;;12.87;;
17091;SDS011;8661;45.700;4.880;2023-01-25T08:39:35;22.90;;;13.43;;
17091;SDS011;8661;45.700;4.880;2023-01-25T08:42:03;20.97;;;12.57;;
17091;SDS011;8661;45.700;4.880;2023-01-25T08:44:31;17.50;;;11.60;;
17091;SDS011;8661;45.700;4.880;2023-01-25T08:46:58;18.90;;;11.90;;
17091;SDS011;8661;45.700;4.880;2023-01-25T08:49:25;19.03;;;12.20;;
17091;SDS011;8661;45.700;4.880;2023-01-25T08:51:52;18.63;;;12.13;;
17091;SDS011;8661;45.700;4.880;2023-01-25T08:54:18;18.97;;;12.33;;
17091;SDS011;8661;45.700;4.880;2023-01-25T08:56:45;24.70;;;12.40;;
17091;SDS011;8661;45.700;4.880;2023-01-25T08:59:14;17.57;;;11.43;;
17091;SDS011;8661;45.700;4.880;2023-01-25T09:01:41;18.77;;;11.60;;
17091;SDS011;8661;45.700;4.880;2023-01-25T09:04:08;16.57;;;11.67;;
17091;SDS011;8661;45.700;4.880;2023-01-25T09:06:34;18.77;;;11.67;;
17091;SDS011;8661;45.700;4.880;2023-01-25T09:09:02;17.17;;;11.27;;
17091;SDS011;8661;45.700;4.880;2023-01-25T09:11:30;18.93;;;11.17;;
17091;SDS011;8661;45.700;4.880;2023-01-25T09:14:00;21.67;;;11.27;;
17091;SDS011;8661;45.700;4.880;2023-01-25T09:16:29;18.63;;;11.67;;
17091;SDS011;8661;45.700;4.880;2023-01-25T09:18:56;17.70;;;11.63;;
17091;SDS011;8661;45.700;4.880;2023-01-25T09:21:24;16.50;;;10.80;;
17091;SDS011;8661;45.700;4.880;2023-01-25T09:23:51;17.37;;;11.80;;
17091;SDS011;8661;45.700;4.880;2023-01-25T09:26:18;19.37;;;11.30;;
17091;SDS011;8661;45.700;4.880;2023-01-25T09:28:46;17.83;;;11.83;;
17091;SDS011;8661;45.700;4.880;2023-01-25T09:31:14;19.23;;;12.67;;
17091;SDS011;8661;45.700;4.880;2023-01-25T09:33:42;18.50;;;11.50;;
17091;SDS011;8661;45.700;4.880;2023-01-25T09:36:10;17.73;;;12.00;;
17091;SDS011;8661;45.700;4.880;2023-01-25T09:38:37;18.80;;;12.27;;
17091;SDS011;8661;45.700;4.880;2023-01-25T09:41:08;18.33;;;12.03;;
17091;SDS011;8661;45.700;4.880;2023-01-25T09:43:55;16.57;;;11.60;;
17091;SDS011;8661;45.700;4.880;2023-01-25T09:46:34;17.47;;;11.67;;
17091;SDS011;8661;45.700;4.880;2023-01-25T09:49:10;19.77;;;11.70;;
17091;SDS011;8661;45.700;4.880;2023-01-25T09:51:55;17.93;;;11.70;;
17091;SDS011;8661;45.700;4.880;2023-01-25T09:54:38;19.17;;;11.50;;
17091;SDS011;8661;45.700;4.880;2023-01-25T09:57:08;19.83;;;12.03;;
17091;SDS011;8661;45.700;4.880;2023-01-25T09:59:36;18.43;;;11.87;;
17091;SDS011;8661;45.700;4.880;2023-01-25T10:02:09;18.80;;;11.67;;
17091;SDS011;8661;45.700;4.880;2023-01-25T10:04:45;18.97;;;12.00;;
17091;SDS011;8661;45.700;4.880;2023-01-25T10:07:17;18.53;;;12.30;;
17091;SDS011;8661;45.700;4.880;2023-01-25T10:09:48;20.93;;;11.83;;
17091;SDS011;8661;45.700;4.880;2023-01-25T10:12:23;20.47;;;12.50;;
17091;SDS011;8661;45.700;4.880;2023-01-25T10:14:51;16.63;;;11.50;;
17091;SDS011;8661;45.700;4.880;2023-01-25T10:17:22;19.40;;;12.10;;
17091;SDS011;8661;45.700;4.880;2023-01-25T10:20:05;17.87;;;11.77;;
17091;SDS011;8661;45.700;4.880;2023-01-25T10:22:41;18.97;;;12.23;;
17091;SDS011;8661;45.700;4.880;2023-01-25T10:25:17;19.53;;;12.80;;
17091;SDS011;8661;45.700;4.880;2023-01-25T10:30:54;21.07;;;13.03;;
17091;SDS011;8661;45.700;4.880;2023-01-25T10:33:23;20.73;;;12.20;;
17091;SDS011;8661;45.700;4.880;2023-01-25T10:35:53;20.47;;;11.73;;
17091;SDS011;8661;45.700;4.880;2023-01-25T10:38:23;18.07;;;12.13;;
17091;SDS011;8661;45.700;4.880;2023-01-25T10:40:54;16.97;;;10.97;;
17091;SDS011;8661;45.700;4.880;2023-01-25T10:43:26;21.60;;;13.27;;
17091;SDS011;8661;45.700;4.880;2023-01-25T10:45:53;23.87;;;12.67;;
17091;SDS011;8661;45.700;4.880;2023-01-25T10:48:20;24.30;;;13.63;;
17091;SDS011;8661;45.700;4.880;2023-01-25T10:50:51;21.90;;;13.57;;
17091;SDS011;8661;45.700;4.880;2023-01-25T10:53:30;18.73;;;12.37;;
17091;SDS011;8661;45.700;4.880;2023-01-25T10:58:49;19.83;;;12.13;;
17091;SDS011;8661;45.700;4.880;2023-01-25T11:01:26;20.40;;;12.60;;
17091;SDS011;8661;45.700;4.880;2023-01-25T11:03:55;24.30;;;12.73;;
17091;SDS011;8661;45.700;4.880;2023-01-25T11:06:34;18.37;;;12.50;;
17091;SDS011;8661;45.700;4.880;2023-01-25T11:09:09;20.70;;;12.47;;
17091;SDS011;8661;45.700;4.880;2023-01-25T11:11:57;18.50;;;12.07;;
17091;SDS011;8661;45.700;4.880;2023-01-25T11:14:27;17.93;;;12.03;;
17091;SDS011;8661;45.700;4.880;2023-01-25T11:16:57;20.83;;;13.27;;
17091;SDS011;8661;45.700;4.880;2023-01-25T11:19:27;20.67;;;12.97;;
17091;SDS011;8661;45.700;4.880;2023-01-25T11:21:58;23.57;;;12.70;;
17091;SDS011;8661;45.700;4.880;2023-01-25T11:24:26;21.53;;;12.97;;
17091;SDS011;8661;45.700;4.880;2023-01-25T11:27:12;20.33;;;13.10;;
17091;SDS011;8661;45.700;4.880;2023-01-25T11:29:44;19.40;;;12.67;;
17091;SDS011;8661;45.700;4.880;2023-01-25T11:32:16;18.67;;;12.53;;
17091;SDS011;8661;45.700;4.880;2023-01-25T11:34:49;21.20;;;13.23;;
17091;SDS011;8661;45.700;4.880;2023-01-25T11:37:22;18.77;;;12.30;;
17091;SDS011;8661;45.700;4.880;2023-01-25T11:40:02;20.77;;;12.73;;
17091;SDS011;8661;45.700;4.880;2023-01-25T11:42:42;19.27;;;12.93;;
17091;SDS011;8661;45.700;4.880;2023-01-25T11:45:35;22.10;;;13.23;;
17091;SDS011;8661;45.700;4.880;2023-01-25T11:51:21;22.33;;;14.17;;
17091;SDS011;8661;45.700;4.880;2023-01-25T11:53:54;25.80;;;13.77;;
17091;SDS011;8661;45.700;4.880;2023-01-25T11:56:41;22.57;;;13.40;;
17091;SDS011;8661;45.700;4.880;2023-01-25T11:59:21;22.23;;;13.33;;
17091;SDS011;8661;45.700;4.880;2023-01-25T12:02:04;22.67;;;13.57;;
17091;SDS011;8661;45.700;4.880;2023-01-25T12:04:54;21.50;;;13.53;;
17091;SDS011;8661;45.700;4.880;2023-01-25T12:07:31;21.07;;;12.43;;
17091;SDS011;8661;45.700;4.880;2023-01-25T12:10:15;22.90;;;13.20;;
17091;SDS011;8661;45.700;4.880;2023-01-25T12:12:51;25.90;;;13.57;;
17091;SDS011;8661;45.700;4.880;2023-01-25T12:15:30;20.07;;;12.97;;
17091;SDS011;8661;45.700;4.880;2023-01-25T12:18:27;23.07;;;12.13;;
17091;SDS011;8661;45.700;4.880;2023-01-25T12:21:09;19.90;;;12.80;;
17091;SDS011;8661;45.700;4.880;2023-01-25T12:23:47;20.97;;;12.00;;
17091;SDS011;8661;45.700;4.880;2023-01-25T12:26:27;20.67;;;12.50;;
17091;SDS011;8661;45.700;4.880;2023-01-25T12:28:57;20.60;;;12.67;;
17091;SDS011;8661;45.700;4.880;2023-01-25T12:31:33;20.67;;;13.10;;
17091;SDS011;8661;45.700;4.880;2023-01-25T12:34:07;22.37;;;13.33;;
17091;SDS011;8661;45.700;4.880;2023-01-25T12:36:41;22.27;;;12.90;;
17091;SDS011;8661;45.700;4.880;2023-01-25T12:39:11;19.90;;;12.20;;
17091;SDS011;8661;45.700;4.880;2023-01-25T12:41:40;21.37;;;11.93;;
17091;SDS011;8661;45.700;4.880;2023-01-25T12:44:13;19.10;;;12.23;;
17091;SDS011;8661;45.700;4.880;2023-01-25T12:46:49;19.33;;;12.77;;
17091;SDS011;8661;45.700;4.880;2023-01-25T12:49:23;22.10;;;13.77;;
17091;SDS011;8661;45.700;4.880;2023-01-25T12:51:55;21.90;;;13.60;;
17091;SDS011;8661;45.700;4.880;2023-01-25T12:54:27;26.77;;;13.70;;
17091;SDS011;8661;45.700;4.880;2023-01-25T12:57:01;26.10;;;14.00;;
17091;SDS011;8661;45.700;4.880;2023-01-25T12:59:39;23.27;;;13.87;;
17091;SDS011;8661;45.700;4.880;2023-01-25T13:02:21;25.53;;;13.53;;
17091;SDS011;8661;45.700;4.880;2023-01-25T13:05:05;22.50;;;12.73;;
17091;SDS011;8661;45.700;4.880;2023-01-25T13:07:41;21.67;;;13.77;;
17091;SDS011;8661;45.700;4.880;2023-01-25T13:10:19;20.93;;;14.00;;
17091;SDS011;8661;45.700;4.880;2023-01-25T13:12:51;22.83;;;13.10;;
17091;SDS011;8661;45.700;4.880;2023-01-25T13:15:35;23.40;;;13.70;;
17091;SDS011;8661;45.700;4.880;2023-01-25T13:21:08;25.47;;;14.70;;
17091;SDS011;8661;45.700;4.880;2023-01-25T13:23:37;23.67;;;14.87;;
17091;SDS011;8661;45.700;4.880;2023-01-25T13:35:31;23.57;;;13.83;;
17091;SDS011;8661;45.700;4.880;2023-01-25T13:38:02;24.33;;;13.33;;
17091;SDS011;8661;45.700;4.880;2023-01-25T13:40:35;25.80;;;13.83;;
17091;SDS011;8661;45.700;4.880;2023-01-25T13:43:04;23.00;;;13.50;;
17091;SDS011;8661;45.700;4.880;2023-01-25T13:45:41;25.77;;;14.03;;
17091;SDS011;8661;45.700;4.880;2023-01-25T13:48:10;22.77;;;14.13;;
17091;SDS011;8661;45.700;4.880;2023-01-25T13:50:42;22.17;;;13.50;;
17091;SDS011;8661;45.700;4.880;2023-01-25T13:53:20;20.90;;;13.47;;
17091;SDS011;8661;45.700;4.880;2023-01-25T13:55:51;20.63;;;13.50;;
17091;SDS011;8661;45.700;4.880;2023-01-25T13:58:21;22.23;;;12.93;;
17091;SDS011;8661;45.700;4.880;2023-01-25T14:00:49;24.67;;;13.60;;
17091;SDS011;8661;45.700;4.880;2023-01-25T14:03:19;29.73;;;13.47;;
17091;SDS011;8661;45.700;4.880;2023-01-25T14:05:51;21.13;;;13.73;;
17091;SDS011;8661;45.700;4.880;2023-01-25T14:08:21;21.87;;;14.23;;
17091;SDS011;8661;45.700;4.880;2023-01-25T14:10:50;22.20;;;13.27;;
17091;SDS011;8661;45.700;4.880;2023-01-25T14:13:18;22.93;;;14.27;;
17091;SDS011;8661;45.700;4.880;2023-01-25T14:15:52;22.93;;;13.43;;
17091;SDS011;8661;45.700;4.880;2023-01-25T14:18:21;23.43;;;13.80;;
17091;SDS011;8661;45.700;4.880;2023-01-25T14:21:04;22.73;;;13.37;;
17091;SDS011;8661;45.700;4.880;2023-01-25T14:23:38;27.67;;;14.03;;
17091;SDS011;8661;45.700;4.880;2023-01-25T14:26:15;24.63;;;14.33;;
17091;SDS011;8661;45.700;4.880;2023-01-25T14:28:48;23.67;;;13.93;;
17091;SDS011;8661;45.700;4.880;2023-01-25T14:31:19;26.20;;;14.90;;
17091;SDS011;8661;45.700;4.880;2023-01-25T14:33:48;24.50;;;14.90;;
17091;SDS011;8661;45.700;4.880;2023-01-25T14:36:22;23.83;;;14.27;;
17091;SDS011;8661;45.700;4.880;2023-01-25T14:38:51;17.30;;;11.47;;
17091;SDS011;8661;45.700;4.880;2023-01-25T14:41:20;16.77;;;11.27;;
17091;SDS011;8661;45.700;4.880;2023-01-25T14:43:51;23.10;;;13.43;;
17091;SDS011;8661;45.700;4.880;2023-01-25T14:46:24;22.10;;;14.13;;
17091;SDS011;8661;45.700;4.880;2023-01-25T14:49:05;20.90;;;13.23;;
17091;SDS011;8661;45.700;4.880;2023-01-25T14:51:33;21.37;;;13.40;;
17091;SDS011;8661;45.700;4.880;2023-01-25T14:54:09;19.77;;;12.00;;
17091;SDS011;8661;45.700;4.880;2023-01-25T14:56:41;19.50;;;12.77;;
17091;SDS011;8661;45.700;4.880;2023-01-25T15:02:02;20.47;;;12.03;;
17091;SDS011;8661;45.700;4.880;2023-01-25T15:04:49;17.63;;;11.70;;
17091;SDS011;8661;45.700;4.880;2023-01-25T15:07:41;19.47;;;12.07;;
17091;SDS011;8661;45.700;4.880;2023-01-25T15:10:18;20.53;;;11.83;;
17091;SDS011;8661;45.700;4.880;2023-01-25T15:12:54;20.33;;;13.00;;
17091;SDS011;8661;45.700;4.880;2023-01-25T15:15:23;20.60;;;13.13;;
17091;SDS011;8661;45.700;4.880;2023-01-25T15:17:51;20.97;;;12.77;;
17091;SDS011;8661;45.700;4.880;2023-01-25T15:20:30;20.60;;;12.23;;